Santuari del Coll - Susqueda





Hora UTC 02:40
Temperatura 19.2 ºC
Humedad 44.0 %
Presión 1003.0 hPa
Pluja 0.0 mm
Velocidad viento 0.0 km/h
Dirección viento NNW

Datos diarios 2022-05-23



Hora UTC (invierno +1h; verano +2h)
Temperatura (ºC) Humedad (%) Presión (hPa) Velocidad viento (km/h) Precipitación (mm)
Hora UTC Aire Humedad Presión Vel. Dir. Vel. Max Dir. Intent. máx 5 min.
00:05 19.2 26.0 1004.8 4.8 W 4.8 0.0
00:10 19.2 26.0 1004.7 3.2 WSW 6.4 0.0
00:15 19.2 27.0 1004.8 6.4 WSW 6.4 0.0
00:20 19.2 28.0 1004.6 6.4 W 11.3 0.0
00:25 19.2 28.0 1004.6 1.6 WSW 11.3 0.0
00:30 19.0 28.0 1004.8 4.8 S 12.9 0.0
00:35 19.1 29.0 1004.8 4.8 W 12.9 0.0
00:40 19.2 28.0 1004.6 1.6 WSW 12.9 0.0
00:45 19.3 27.0 1004.5 0.0 SSW 12.9 0.0
00:50 19.8 28.0 1003.7 27.4 SSE 37.0 0.0
00:55 21.5 27.0 1003.9 8.0 SSE 37.0 0.0
01:00 22.0 26.0 1003.9 1.6 S 19.3 0.0
01:05 21.8 25.0 1003.7 1.6 SSE 8.0 0.0
01:10 21.3 26.0 1003.4 1.6 SW 8.0 0.0
01:15 20.8 28.0 1003.1 4.8 SSE 6.4 0.0
01:20 20.4 31.0 1003.6 4.8 SSE 19.3 0.0
01:25 20.6 31.0 1003.8 1.6 SSW 19.3 0.0
01:30 20.6 32.0 1003.8 3.2 SSE 16.1 0.0
01:35 20.8 32.0 1003.9 3.2 SSE 14.5 0.0
01:40 20.9 32.0 1003.8 1.6 NW 12.9 0.0
01:45 20.7 32.0 1003.7 1.6 WSW 11.3 0.0
01:50 20.4 33.0 1003.6 4.8 W 11.3 0.0
01:55 20.1 35.0 1003.6 1.6 WSW 9.7 0.0
02:00 19.7 35.0 1003.5 4.8 SSW 14.5 0.0
02:05 19.4 36.0 1003.3 6.4 NW 20.9 0.0
02:10 19.2 38.0 1003.2 3.2 NNW 20.9 0.0
02:15 19.1 39.0 1003.2 0.0 NE 11.3 0.0
02:20 18.8 40.0 1003.3 1.6 NE 16.1 0.0
02:25 19.0 42.0 1003.3 1.6 ENE 16.1 0.0
02:30 19.1 43.0 1003.2 0.0 E 8.0 0.0
02:35 19.3 43.0 1003.1 0.0 E 8.0 0.0
02:40 19.2 44.0 1003.0 0.0 NNW 8.0 0.0
Máxima 22.1 44.0 1004.8 27.4 SSE 37.0 0.0
Mínima 18.8 25.0 1003.0
Total 0.0